sensor_id;sensor_type;location;lat;lon;timestamp;P1;durP1;ratioP1;P2;durP2;ratioP2
305;SDS011;137;48.578;9.180;2024-01-06T00:00:13;4.50;;;3.20;;
305;SDS011;137;48.578;9.180;2024-01-06T00:02:43;5.00;;;3.63;;
305;SDS011;137;48.578;9.180;2024-01-06T00:05:09;4.10;;;3.23;;
305;SDS011;137;48.578;9.180;2024-01-06T00:07:36;4.57;;;2.73;;
305;SDS011;137;48.578;9.180;2024-01-06T00:10:03;4.40;;;2.87;;
305;SDS011;137;48.578;9.180;2024-01-06T00:12:30;5.37;;;3.30;;
305;SDS011;137;48.578;9.180;2024-01-06T00:14:57;4.57;;;3.20;;
305;SDS011;137;48.578;9.180;2024-01-06T00:17:25;4.10;;;3.23;;
305;SDS011;137;48.578;9.180;2024-01-06T00:19:52;4.40;;;3.20;;
305;SDS011;137;48.578;9.180;2024-01-06T00:22:19;4.90;;;3.30;;
305;SDS011;137;48.578;9.180;2024-01-06T00:24:46;3.40;;;3.10;;
305;SDS011;137;48.578;9.180;2024-01-06T00:27:13;3.97;;;3.13;;
305;SDS011;137;48.578;9.180;2024-01-06T00:29:41;3.97;;;3.10;;
305;SDS011;137;48.578;9.180;2024-01-06T00:32:07;3.13;;;2.80;;
305;SDS011;137;48.578;9.180;2024-01-06T00:34:36;7.20;;;2.67;;
305;SDS011;137;48.578;9.180;2024-01-06T00:37:02;3.43;;;3.13;;
305;SDS011;137;48.578;9.180;2024-01-06T00:39:29;4.83;;;3.07;;
305;SDS011;137;48.578;9.180;2024-01-06T00:41:56;3.23;;;2.90;;
305;SDS011;137;48.578;9.180;2024-01-06T00:44:23;3.80;;;3.33;;
305;SDS011;137;48.578;9.180;2024-01-06T00:46:49;4.23;;;3.17;;
305;SDS011;137;48.578;9.180;2024-01-06T00:49:16;2.83;;;2.53;;
305;SDS011;137;48.578;9.180;2024-01-06T00:51:44;3.50;;;3.20;;
305;SDS011;137;48.578;9.180;2024-01-06T00:54:11;6.63;;;3.57;;
305;SDS011;137;48.578;9.180;2024-01-06T00:56:38;5.90;;;4.53;;
305;SDS011;137;48.578;9.180;2024-01-06T00:59:07;5.17;;;4.20;;
305;SDS011;137;48.578;9.180;2024-01-06T01:01:33;5.80;;;3.90;;
305;SDS011;137;48.578;9.180;2024-01-06T01:04:00;6.30;;;4.07;;
305;SDS011;137;48.578;9.180;2024-01-06T01:06:27;5.03;;;4.20;;
305;SDS011;137;48.578;9.180;2024-01-06T01:09:04;4.77;;;4.23;;
305;SDS011;137;48.578;9.180;2024-01-06T01:11:31;5.40;;;3.57;;
305;SDS011;137;48.578;9.180;2024-01-06T01:13:58;3.77;;;3.43;;
305;SDS011;137;48.578;9.180;2024-01-06T01:16:25;7.10;;;4.93;;
305;SDS011;137;48.578;9.180;2024-01-06T01:18:51;6.87;;;4.17;;
305;SDS011;137;48.578;9.180;2024-01-06T01:21:18;6.40;;;4.13;;
305;SDS011;137;48.578;9.180;2024-01-06T01:23:45;5.80;;;5.20;;
305;SDS011;137;48.578;9.180;2024-01-06T01:26:13;3.77;;;3.27;;
305;SDS011;137;48.578;9.180;2024-01-06T01:28:40;4.60;;;4.10;;
305;SDS011;137;48.578;9.180;2024-01-06T01:31:07;4.77;;;4.07;;
305;SDS011;137;48.578;9.180;2024-01-06T01:33:34;5.73;;;3.87;;
305;SDS011;137;48.578;9.180;2024-01-06T01:36:01;3.50;;;3.20;;
305;SDS011;137;48.578;9.180;2024-01-06T01:38:28;4.30;;;3.90;;
305;SDS011;137;48.578;9.180;2024-01-06T01:40:54;4.33;;;3.27;;
305;SDS011;137;48.578;9.180;2024-01-06T01:43:23;5.63;;;3.37;;
305;SDS011;137;48.578;9.180;2024-01-06T01:45:50;3.60;;;2.80;;
305;SDS011;137;48.578;9.180;2024-01-06T01:48:19;4.37;;;3.37;;
305;SDS011;137;48.578;9.180;2024-01-06T01:50:46;4.53;;;2.83;;
305;SDS011;137;48.578;9.180;2024-01-06T01:53:13;3.40;;;2.73;;
305;SDS011;137;48.578;9.180;2024-01-06T01:55:40;3.53;;;3.20;;
305;SDS011;137;48.578;9.180;2024-01-06T01:58:07;5.90;;;4.07;;
305;SDS011;137;48.578;9.180;2024-01-06T02:00:38;3.60;;;2.90;;
305;SDS011;137;48.578;9.180;2024-01-06T02:03:05;5.47;;;3.30;;
305;SDS011;137;48.578;9.180;2024-01-06T02:05:33;4.20;;;2.80;;
305;SDS011;137;48.578;9.180;2024-01-06T02:08:00;3.10;;;2.77;;
305;SDS011;137;48.578;9.180;2024-01-06T02:10:27;2.90;;;2.60;;
305;SDS011;137;48.578;9.180;2024-01-06T02:12:54;4.90;;;3.53;;
305;SDS011;137;48.578;9.180;2024-01-06T02:15:21;4.20;;;3.80;;
305;SDS011;137;48.578;9.180;2024-01-06T02:17:49;3.30;;;3.00;;
305;SDS011;137;48.578;9.180;2024-01-06T02:20:16;4.23;;;3.83;;
305;SDS011;137;48.578;9.180;2024-01-06T02:22:46;6.17;;;3.10;;
305;SDS011;137;48.578;9.180;2024-01-06T02:25:13;3.77;;;3.07;;
305;SDS011;137;48.578;9.180;2024-01-06T02:27:40;4.10;;;2.20;;
305;SDS011;137;48.578;9.180;2024-01-06T02:30:07;4.97;;;3.00;;
305;SDS011;137;48.578;9.180;2024-01-06T02:32:35;3.13;;;2.57;;
305;SDS011;137;48.578;9.180;2024-01-06T02:35:02;2.67;;;2.47;;
305;SDS011;137;48.578;9.180;2024-01-06T02:37:29;3.50;;;2.17;;
305;SDS011;137;48.578;9.180;2024-01-06T02:39:57;5.10;;;2.50;;
305;SDS011;137;48.578;9.180;2024-01-06T02:42:24;3.43;;;3.10;;
305;SDS011;137;48.578;9.180;2024-01-06T02:44:51;3.77;;;2.60;;
305;SDS011;137;48.578;9.180;2024-01-06T02:47:17;2.77;;;2.50;;
305;SDS011;137;48.578;9.180;2024-01-06T02:49:44;2.80;;;2.20;;
305;SDS011;137;48.578;9.180;2024-01-06T02:52:11;3.47;;;2.50;;
305;SDS011;137;48.578;9.180;2024-01-06T02:54:38;4.83;;;2.37;;
305;SDS011;137;48.578;9.180;2024-01-06T02:57:06;2.50;;;2.30;;
305;SDS011;137;48.578;9.180;2024-01-06T02:59:33;5.10;;;2.40;;
305;SDS011;137;48.578;9.180;2024-01-06T03:02:01;2.97;;;2.27;;
305;SDS011;137;48.578;9.180;2024-01-06T03:04:28;2.60;;;2.37;;
305;SDS011;137;48.578;9.180;2024-01-06T03:06:54;4.00;;;2.93;;
305;SDS011;137;48.578;9.180;2024-01-06T03:09:21;2.47;;;1.40;;
305;SDS011;137;48.578;9.180;2024-01-06T03:11:48;2.40;;;1.70;;
305;SDS011;137;48.578;9.180;2024-01-06T03:14:16;1.97;;;1.53;;
305;SDS011;137;48.578;9.180;2024-01-06T03:16:43;7.10;;;1.93;;
305;SDS011;137;48.578;9.180;2024-01-06T03:19:11;2.97;;;1.80;;
305;SDS011;137;48.578;9.180;2024-01-06T03:21:38;3.43;;;1.80;;
305;SDS011;137;48.578;9.180;2024-01-06T03:24:06;2.30;;;1.70;;
305;SDS011;137;48.578;9.180;2024-01-06T03:26:34;5.57;;;1.83;;
305;SDS011;137;48.578;9.180;2024-01-06T03:29:00;2.87;;;1.80;;
305;SDS011;137;48.578;9.180;2024-01-06T03:31:29;4.23;;;2.30;;
305;SDS011;137;48.578;9.180;2024-01-06T03:33:56;3.37;;;1.53;;
305;SDS011;137;48.578;9.180;2024-01-06T03:36:23;2.03;;;1.83;;
305;SDS011;137;48.578;9.180;2024-01-06T03:38:50;1.60;;;1.47;;
305;SDS011;137;48.578;9.180;2024-01-06T03:41:17;3.30;;;1.80;;
305;SDS011;137;48.578;9.180;2024-01-06T03:43:44;2.13;;;1.93;;
305;SDS011;137;48.578;9.180;2024-01-06T03:46:10;3.50;;;1.80;;
305;SDS011;137;48.578;9.180;2024-01-06T03:48:39;4.60;;;1.87;;
305;SDS011;137;48.578;9.180;2024-01-06T03:51:05;4.50;;;1.70;;
305;SDS011;137;48.578;9.180;2024-01-06T03:53:33;2.03;;;1.60;;
305;SDS011;137;48.578;9.180;2024-01-06T03:56:00;2.47;;;1.60;;
305;SDS011;137;48.578;9.180;2024-01-06T03:58:27;4.33;;;1.90;;
305;SDS011;137;48.578;9.180;2024-01-06T04:00:54;2.00;;;1.60;;
305;SDS011;137;48.578;9.180;2024-01-06T04:03:21;2.27;;;1.80;;
305;SDS011;137;48.578;9.180;2024-01-06T04:05:49;1.60;;;1.40;;
305;SDS011;137;48.578;9.180;2024-01-06T04:08:15;1.90;;;1.60;;
305;SDS011;137;48.578;9.180;2024-01-06T04:10:43;3.43;;;2.13;;
305;SDS011;137;48.578;9.180;2024-01-06T04:13:10;2.60;;;1.90;;
305;SDS011;137;48.578;9.180;2024-01-06T04:15:37;2.17;;;1.50;;
305;SDS011;137;48.578;9.180;2024-01-06T04:18:04;2.23;;;1.63;;
305;SDS011;137;48.578;9.180;2024-01-06T04:20:31;3.30;;;1.73;;
305;SDS011;137;48.578;9.180;2024-01-06T04:23:00;3.93;;;1.50;;
305;SDS011;137;48.578;9.180;2024-01-06T04:25:27;3.43;;;1.80;;
305;SDS011;137;48.578;9.180;2024-01-06T04:27:53;2.37;;;1.50;;
305;SDS011;137;48.578;9.180;2024-01-06T04:30:20;3.73;;;1.60;;
305;SDS011;137;48.578;9.180;2024-01-06T04:32:47;2.87;;;2.00;;
305;SDS011;137;48.578;9.180;2024-01-06T04:35:14;1.67;;;1.50;;
305;SDS011;137;48.578;9.180;2024-01-06T04:37:41;3.63;;;1.60;;
305;SDS011;137;48.578;9.180;2024-01-06T04:40:10;1.70;;;1.40;;
305;SDS011;137;48.578;9.180;2024-01-06T04:42:37;2.57;;;1.50;;
305;SDS011;137;48.578;9.180;2024-01-06T04:45:04;3.50;;;1.87;;
305;SDS011;137;48.578;9.180;2024-01-06T04:47:32;2.93;;;1.50;;
305;SDS011;137;48.578;9.180;2024-01-06T04:49:58;2.70;;;2.00;;
305;SDS011;137;48.578;9.180;2024-01-06T04:52:25;2.20;;;1.83;;
305;SDS011;137;48.578;9.180;2024-01-06T04:54:52;2.80;;;2.07;;
305;SDS011;137;48.578;9.180;2024-01-06T04:57:21;2.53;;;1.97;;
305;SDS011;137;48.578;9.180;2024-01-06T04:59:48;4.57;;;1.50;;
305;SDS011;137;48.578;9.180;2024-01-06T05:02:15;4.80;;;1.77;;
305;SDS011;137;48.578;9.180;2024-01-06T05:04:41;5.10;;;1.77;;
305;SDS011;137;48.578;9.180;2024-01-06T05:07:08;3.83;;;2.10;;
305;SDS011;137;48.578;9.180;2024-01-06T05:09:35;5.13;;;2.37;;
305;SDS011;137;48.578;9.180;2024-01-06T05:12:02;6.07;;;2.13;;
305;SDS011;137;48.578;9.180;2024-01-06T05:14:31;3.40;;;1.80;;
305;SDS011;137;48.578;9.180;2024-01-06T05:16:58;4.67;;;2.40;;
305;SDS011;137;48.578;9.180;2024-01-06T05:19:24;1.77;;;1.50;;
305;SDS011;137;48.578;9.180;2024-01-06T05:21:51;3.23;;;2.13;;
305;SDS011;137;48.578;9.180;2024-01-06T05:24:18;1.63;;;1.40;;
305;SDS011;137;48.578;9.180;2024-01-06T05:26:45;2.20;;;2.00;;
305;SDS011;137;48.578;9.180;2024-01-06T05:29:12;3.23;;;2.00;;
305;SDS011;137;48.578;9.180;2024-01-06T05:31:40;3.27;;;1.87;;
305;SDS011;137;48.578;9.180;2024-01-06T05:34:06;3.20;;;2.37;;
305;SDS011;137;48.578;9.180;2024-01-06T05:36:33;4.90;;;2.03;;
305;SDS011;137;48.578;9.180;2024-01-06T05:39:01;33.77;;;3.40;;
305;SDS011;137;48.578;9.180;2024-01-06T05:41:28;3.57;;;2.00;;
305;SDS011;137;48.578;9.180;2024-01-06T05:43:54;3.03;;;2.63;;
305;SDS011;137;48.578;9.180;2024-01-06T05:46:22;3.77;;;2.23;;
305;SDS011;137;48.578;9.180;2024-01-06T05:48:51;5.03;;;2.17;;
305;SDS011;137;48.578;9.180;2024-01-06T05:51:22;3.00;;;2.70;;
305;SDS011;137;48.578;9.180;2024-01-06T05:53:49;4.07;;;2.80;;
305;SDS011;137;48.578;9.180;2024-01-06T05:56:21;4.00;;;3.07;;
305;SDS011;137;48.578;9.180;2024-01-06T05:58:50;2.80;;;2.40;;
305;SDS011;137;48.578;9.180;2024-01-06T06:01:16;3.00;;;2.60;;
305;SDS011;137;48.578;9.180;2024-01-06T06:03:43;3.90;;;2.47;;
305;SDS011;137;48.578;9.180;2024-01-06T06:06:12;4.53;;;2.60;;
305;SDS011;137;48.578;9.180;2024-01-06T06:08:39;3.10;;;2.30;;
305;SDS011;137;48.578;9.180;2024-01-06T06:11:06;4.70;;;2.50;;
305;SDS011;137;48.578;9.180;2024-01-06T06:13:36;4.00;;;2.47;;
305;SDS011;137;48.578;9.180;2024-01-06T06:16:03;8.03;;;2.50;;
305;SDS011;137;48.578;9.180;2024-01-06T06:18:30;4.90;;;2.17;;
305;SDS011;137;48.578;9.180;2024-01-06T06:20:58;4.00;;;2.63;;
305;SDS011;137;48.578;9.180;2024-01-06T06:23:26;4.93;;;2.00;;
305;SDS011;137;48.578;9.180;2024-01-06T06:25:53;5.43;;;2.30;;
305;SDS011;137;48.578;9.180;2024-01-06T06:28:21;3.27;;;2.17;;
305;SDS011;137;48.578;9.180;2024-01-06T06:30:48;2.90;;;2.13;;
305;SDS011;137;48.578;9.180;2024-01-06T06:33:15;6.07;;;2.20;;
305;SDS011;137;48.578;9.180;2024-01-06T06:35:42;2.17;;;1.60;;
305;SDS011;137;48.578;9.180;2024-01-06T06:40:41;6.77;;;1.83;;
305;SDS011;137;48.578;9.180;2024-01-06T06:43:08;1.93;;;1.57;;
305;SDS011;137;48.578;9.180;2024-01-06T06:45:35;2.77;;;2.20;;
305;SDS011;137;48.578;9.180;2024-01-06T06:48:02;5.90;;;1.70;;
305;SDS011;137;48.578;9.180;2024-01-06T06:50:29;2.20;;;1.70;;
305;SDS011;137;48.578;9.180;2024-01-06T06:52:56;2.00;;;1.67;;
305;SDS011;137;48.578;9.180;2024-01-06T06:55:23;2.87;;;1.90;;
305;SDS011;137;48.578;9.180;2024-01-06T06:57:51;8.70;;;1.87;;
305;SDS011;137;48.578;9.180;2024-01-06T07:00:18;3.23;;;1.73;;
305;SDS011;137;48.578;9.180;2024-01-06T07:02:45;6.90;;;1.93;;
305;SDS011;137;48.578;9.180;2024-01-06T07:05:12;2.90;;;2.17;;
305;SDS011;137;48.578;9.180;2024-01-06T07:07:39;3.00;;;2.10;;
305;SDS011;137;48.578;9.180;2024-01-06T07:10:08;4.90;;;2.00;;
305;SDS011;137;48.578;9.180;2024-01-06T07:12:35;2.90;;;2.07;;
305;SDS011;137;48.578;9.180;2024-01-06T07:15:05;2.60;;;1.80;;
305;SDS011;137;48.578;9.180;2024-01-06T07:17:34;3.17;;;1.93;;
305;SDS011;137;48.578;9.180;2024-01-06T07:20:01;5.20;;;1.43;;
305;SDS011;137;48.578;9.180;2024-01-06T07:22:28;2.03;;;1.40;;
305;SDS011;137;48.578;9.180;2024-01-06T07:24:55;1.67;;;1.47;;
305;SDS011;137;48.578;9.180;2024-01-06T07:27:21;3.53;;;1.60;;
305;SDS011;137;48.578;9.180;2024-01-06T07:29:48;2.63;;;1.60;;
305;SDS011;137;48.578;9.180;2024-01-06T07:32:17;9.50;;;4.43;;
305;SDS011;137;48.578;9.180;2024-01-06T07:34:44;2.87;;;1.30;;
305;SDS011;137;48.578;9.180;2024-01-06T07:37:10;2.90;;;1.67;;
305;SDS011;137;48.578;9.180;2024-01-06T07:39:37;3.83;;;1.73;;
305;SDS011;137;48.578;9.180;2024-01-06T07:42:04;3.10;;;1.40;;
305;SDS011;137;48.578;9.180;2024-01-06T07:44:31;2.87;;;1.27;;
305;SDS011;137;48.578;9.180;2024-01-06T07:46:57;3.73;;;1.30;;
305;SDS011;137;48.578;9.180;2024-01-06T07:49:25;3.00;;;2.03;;
305;SDS011;137;48.578;9.180;2024-01-06T07:51:52;1.83;;;1.30;;
305;SDS011;137;48.578;9.180;2024-01-06T07:54:19;3.20;;;1.40;;
305;SDS011;137;48.578;9.180;2024-01-06T07:56:46;1.63;;;1.10;;
305;SDS011;137;48.578;9.180;2024-01-06T07:59:13;1.90;;;1.30;;
305;SDS011;137;48.578;9.180;2024-01-06T08:01:40;1.60;;;1.43;;
305;SDS011;137;48.578;9.180;2024-01-06T08:04:07;2.27;;;1.40;;
305;SDS011;137;48.578;9.180;2024-01-06T08:06:36;2.90;;;1.47;;
305;SDS011;137;48.578;9.180;2024-01-06T08:09:03;3.03;;;1.50;;
305;SDS011;137;48.578;9.180;2024-01-06T08:11:29;1.77;;;1.30;;
305;SDS011;137;48.578;9.180;2024-01-06T08:13:56;1.93;;;1.50;;
305;SDS011;137;48.578;9.180;2024-01-06T08:16:23;1.70;;;1.60;;
305;SDS011;137;48.578;9.180;2024-01-06T08:18:50;3.60;;;1.60;;
305;SDS011;137;48.578;9.180;2024-01-06T08:21:16;1.70;;;1.40;;
305;SDS011;137;48.578;9.180;2024-01-06T08:23:45;1.60;;;1.30;;
305;SDS011;137;48.578;9.180;2024-01-06T08:26:12;1.77;;;1.30;;
305;SDS011;137;48.578;9.180;2024-01-06T08:28:38;2.67;;;1.43;;
305;SDS011;137;48.578;9.180;2024-01-06T08:31:05;2.23;;;1.33;;
305;SDS011;137;48.578;9.180;2024-01-06T08:33:35;1.70;;;1.40;;
305;SDS011;137;48.578;9.180;2024-01-06T08:36:02;2.17;;;1.97;;
305;SDS011;137;48.578;9.180;2024-01-06T08:38:29;2.40;;;1.53;;
305;SDS011;137;48.578;9.180;2024-01-06T08:40:57;2.93;;;1.47;;
305;SDS011;137;48.578;9.180;2024-01-06T08:43:23;2.70;;;1.30;;
305;SDS011;137;48.578;9.180;2024-01-06T08:45:50;4.33;;;1.57;;
305;SDS011;137;48.578;9.180;2024-01-06T08:48:17;1.53;;;1.20;;
305;SDS011;137;48.578;9.180;2024-01-06T08:50:44;5.17;;;1.30;;
305;SDS011;137;48.578;9.180;2024-01-06T08:53:11;1.63;;;1.10;;
305;SDS011;137;48.578;9.180;2024-01-06T08:55:38;2.77;;;1.67;;
305;SDS011;137;48.578;9.180;2024-01-06T08:58:06;1.93;;;1.40;;
305;SDS011;137;48.578;9.180;2024-01-06T09:00:33;2.80;;;1.43;;
305;SDS011;137;48.578;9.180;2024-01-06T09:03:00;2.10;;;1.60;;
305;SDS011;137;48.578;9.180;2024-01-06T09:05:26;1.90;;;1.60;;
305;SDS011;137;48.578;9.180;2024-01-06T09:07:53;4.47;;;1.70;;
305;SDS011;137;48.578;9.180;2024-01-06T09:10:20;4.27;;;2.47;;
305;SDS011;137;48.578;9.180;2024-01-06T09:12:46;1.53;;;1.43;;
305;SDS011;137;48.578;9.180;2024-01-06T09:15:15;2.07;;;1.50;;
305;SDS011;137;48.578;9.180;2024-01-06T09:17:41;3.30;;;3.00;;
305;SDS011;137;48.578;9.180;2024-01-06T09:20:08;8.40;;;4.60;;
305;SDS011;137;48.578;9.180;2024-01-06T09:22:35;4.47;;;3.53;;
305;SDS011;137;48.578;9.180;2024-01-06T09:25:02;5.70;;;4.03;;
305;SDS011;137;48.578;9.180;2024-01-06T09:27:30;3.77;;;3.03;;
305;SDS011;137;48.578;9.180;2024-01-06T09:29:57;3.70;;;2.20;;
305;SDS011;137;48.578;9.180;2024-01-06T09:32:25;2.63;;;1.87;;
305;SDS011;137;48.578;9.180;2024-01-06T09:34:52;5.87;;;1.97;;
305;SDS011;137;48.578;9.180;2024-01-06T09:37:19;3.40;;;1.70;;
305;SDS011;137;48.578;9.180;2024-01-06T09:39:46;1.70;;;1.40;;
305;SDS011;137;48.578;9.180;2024-01-06T09:42:14;4.70;;;1.70;;
305;SDS011;137;48.578;9.180;2024-01-06T09:44:41;1.97;;;1.37;;
305;SDS011;137;48.578;9.180;2024-01-06T09:47:08;3.13;;;1.80;;
305;SDS011;137;48.578;9.180;2024-01-06T09:49:39;2.13;;;1.50;;
305;SDS011;137;48.578;9.180;2024-01-06T09:52:13;3.67;;;2.50;;
305;SDS011;137;48.578;9.180;2024-01-06T09:54:42;5.10;;;3.67;;
305;SDS011;137;48.578;9.180;2024-01-06T09:57:15;4.50;;;3.50;;
305;SDS011;137;48.578;9.180;2024-01-06T09:59:42;2.70;;;2.30;;
305;SDS011;137;48.578;9.180;2024-01-06T10:02:11;4.30;;;1.70;;
305;SDS011;137;48.578;9.180;2024-01-06T10:04:42;3.50;;;1.40;;
305;SDS011;137;48.578;9.180;2024-01-06T10:07:09;3.10;;;1.83;;
305;SDS011;137;48.578;9.180;2024-01-06T10:09:38;1.87;;;1.43;;
305;SDS011;137;48.578;9.180;2024-01-06T10:12:06;2.53;;;1.57;;
305;SDS011;137;48.578;9.180;2024-01-06T10:14:34;1.50;;;0.90;;
305;SDS011;137;48.578;9.180;2024-01-06T10:17:01;1.47;;;0.90;;
305;SDS011;137;48.578;9.180;2024-01-06T10:19:28;3.60;;;1.20;;
305;SDS011;137;48.578;9.180;2024-01-06T10:21:57;2.83;;;1.10;;
305;SDS011;137;48.578;9.180;2024-01-06T10:24:27;1.30;;;0.83;;
305;SDS011;137;48.578;9.180;2024-01-06T10:26:54;1.40;;;0.90;;
305;SDS011;137;48.578;9.180;2024-01-06T10:29:21;1.30;;;1.10;;
305;SDS011;137;48.578;9.180;2024-01-06T10:31:48;2.87;;;1.00;;
305;SDS011;137;48.578;9.180;2024-01-06T10:34:15;1.07;;;0.80;;
305;SDS011;137;48.578;9.180;2024-01-06T10:36:41;1.30;;;1.10;;
305;SDS011;137;48.578;9.180;2024-01-06T10:39:10;2.60;;;0.90;;
305;SDS011;137;48.578;9.180;2024-01-06T10:41:40;0.90;;;0.70;;
305;SDS011;137;48.578;9.180;2024-01-06T10:44:07;1.47;;;0.90;;
305;SDS011;137;48.578;9.180;2024-01-06T10:46:35;1.10;;;0.70;;
305;SDS011;137;48.578;9.180;2024-01-06T10:49:05;1.77;;;1.00;;
305;SDS011;137;48.578;9.180;2024-01-06T10:51:33;1.20;;;0.90;;
305;SDS011;137;48.578;9.180;2024-01-06T10:54:00;2.80;;;1.17;;
305;SDS011;137;48.578;9.180;2024-01-06T10:56:30;4.90;;;0.90;;
305;SDS011;137;48.578;9.180;2024-01-06T10:58:56;1.10;;;0.90;;
305;SDS011;137;48.578;9.180;2024-01-06T11:01:24;1.30;;;1.10;;
305;SDS011;137;48.578;9.180;2024-01-06T11:03:50;1.10;;;0.80;;
305;SDS011;137;48.578;9.180;2024-01-06T11:06:19;2.13;;;1.10;;
305;SDS011;137;48.578;9.180;2024-01-06T11:08:48;1.07;;;0.90;;
305;SDS011;137;48.578;9.180;2024-01-06T11:11:19;2.17;;;1.03;;
305;SDS011;137;48.578;9.180;2024-01-06T11:13:49;1.10;;;0.90;;
305;SDS011;137;48.578;9.180;2024-01-06T11:19:00;1.50;;;0.97;;
305;SDS011;137;48.578;9.180;2024-01-06T11:21:29;3.00;;;1.00;;
305;SDS011;137;48.578;9.180;2024-01-06T11:24:15;1.20;;;1.03;;
305;SDS011;137;48.578;9.180;2024-01-06T11:26:49;1.20;;;0.90;;
305;SDS011;137;48.578;9.180;2024-01-06T11:29:18;1.73;;;0.87;;
305;SDS011;137;48.578;9.180;2024-01-06T11:34:49;1.30;;;0.90;;
305;SDS011;137;48.578;9.180;2024-01-06T11:37:20;1.10;;;0.77;;
305;SDS011;137;48.578;9.180;2024-01-06T11:39:50;2.10;;;1.17;;
305;SDS011;137;48.578;9.180;2024-01-06T11:42:18;1.50;;;0.90;;
305;SDS011;137;48.578;9.180;2024-01-06T11:44:49;1.10;;;0.83;;
305;SDS011;137;48.578;9.180;2024-01-06T11:47:17;0.90;;;0.70;;
305;SDS011;137;48.578;9.180;2024-01-06T11:49:48;1.00;;;0.80;;
305;SDS011;137;48.578;9.180;2024-01-06T11:52:20;1.20;;;0.83;;
305;SDS011;137;48.578;9.180;2024-01-06T11:54:47;1.23;;;0.77;;
305;SDS011;137;48.578;9.180;2024-01-06T11:57:15;1.10;;;0.70;;
305;SDS011;137;48.578;9.180;2024-01-06T11:59:42;1.13;;;0.73;;
305;SDS011;137;48.578;9.180;2024-01-06T12:02:11;1.17;;;0.80;;
305;SDS011;137;48.578;9.180;2024-01-06T12:04:39;1.10;;;0.90;;
305;SDS011;137;48.578;9.180;2024-01-06T12:07:07;1.23;;;0.93;;
305;SDS011;137;48.578;9.180;2024-01-06T12:09:34;1.30;;;0.87;;
305;SDS011;137;48.578;9.180;2024-01-06T12:12:01;1.00;;;0.70;;
305;SDS011;137;48.578;9.180;2024-01-06T12:14:30;2.37;;;0.70;;
305;SDS011;137;48.578;9.180;2024-01-06T12:16:57;1.07;;;0.77;;
305;SDS011;137;48.578;9.180;2024-01-06T12:19:28;1.10;;;0.73;;
305;SDS011;137;48.578;9.180;2024-01-06T12:21:56;1.20;;;0.87;;
305;SDS011;137;48.578;9.180;2024-01-06T12:24:23;1.23;;;1.00;;
305;SDS011;137;48.578;9.180;2024-01-06T12:26:50;2.20;;;1.20;;
305;SDS011;137;48.578;9.180;2024-01-06T12:29:17;1.20;;;1.00;;
305;SDS011;137;48.578;9.180;2024-01-06T12:31:44;1.10;;;0.80;;
305;SDS011;137;48.578;9.180;2024-01-06T12:34:12;1.23;;;0.90;;
305;SDS011;137;48.578;9.180;2024-01-06T12:36:40;1.57;;;1.20;;
305;SDS011;137;48.578;9.180;2024-01-06T12:39:10;6.07;;;1.23;;
305;SDS011;137;48.578;9.180;2024-01-06T12:41:38;1.67;;;1.00;;
305;SDS011;137;48.578;9.180;2024-01-06T12:44:05;1.00;;;0.80;;
305;SDS011;137;48.578;9.180;2024-01-06T12:46:33;1.10;;;0.80;;
305;SDS011;137;48.578;9.180;2024-01-06T12:49:00;1.17;;;0.90;;
305;SDS011;137;48.578;9.180;2024-01-06T12:51:27;1.43;;;1.07;;
305;SDS011;137;48.578;9.180;2024-01-06T12:53:56;1.27;;;1.00;;
305;SDS011;137;48.578;9.180;2024-01-06T12:56:23;1.20;;;0.90;;
305;SDS011;137;48.578;9.180;2024-01-06T12:58:50;1.30;;;0.93;;
305;SDS011;137;48.578;9.180;2024-01-06T13:01:18;1.10;;;0.70;;
305;SDS011;137;48.578;9.180;2024-01-06T13:03:45;1.30;;;0.80;;
305;SDS011;137;48.578;9.180;2024-01-06T13:06:11;1.20;;;0.90;;
305;SDS011;137;48.578;9.180;2024-01-06T13:08:39;1.10;;;0.73;;
305;SDS011;137;48.578;9.180;2024-01-06T13:11:08;1.10;;;0.87;;
305;SDS011;137;48.578;9.180;2024-01-06T13:13:35;1.43;;;0.70;;
305;SDS011;137;48.578;9.180;2024-01-06T13:16:03;1.60;;;0.90;;
305;SDS011;137;48.578;9.180;2024-01-06T13:18:31;1.10;;;0.70;;
305;SDS011;137;48.578;9.180;2024-01-06T13:20:57;1.20;;;0.80;;
305;SDS011;137;48.578;9.180;2024-01-06T13:23:24;1.20;;;0.80;;
305;SDS011;137;48.578;9.180;2024-01-06T13:25:51;1.10;;;0.77;;
305;SDS011;137;48.578;9.180;2024-01-06T13:28:20;1.00;;;0.70;;
305;SDS011;137;48.578;9.180;2024-01-06T13:30:49;1.00;;;0.70;;
305;SDS011;137;48.578;9.180;2024-01-06T13:33:15;3.43;;;1.10;;
305;SDS011;137;48.578;9.180;2024-01-06T13:35:42;1.00;;;0.70;;
305;SDS011;137;48.578;9.180;2024-01-06T13:40:41;1.00;;;0.70;;
305;SDS011;137;48.578;9.180;2024-01-06T13:43:07;1.47;;;0.90;;
305;SDS011;137;48.578;9.180;2024-01-06T13:45:41;1.20;;;0.90;;
305;SDS011;137;48.578;9.180;2024-01-06T13:48:09;1.47;;;0.90;;
305;SDS011;137;48.578;9.180;2024-01-06T13:50:36;1.20;;;1.00;;
305;SDS011;137;48.578;9.180;2024-01-06T13:53:03;2.13;;;0.90;;
305;SDS011;137;48.578;9.180;2024-01-06T13:55:31;1.00;;;0.70;;
305;SDS011;137;48.578;9.180;2024-01-06T13:57:59;1.20;;;0.90;;
305;SDS011;137;48.578;9.180;2024-01-06T14:00:26;1.10;;;0.80;;
305;SDS011;137;48.578;9.180;2024-01-06T14:02:54;1.40;;;1.00;;
305;SDS011;137;48.578;9.180;2024-01-06T14:05:22;1.30;;;1.00;;
305;SDS011;137;48.578;9.180;2024-01-06T14:07:49;1.40;;;1.10;;
305;SDS011;137;48.578;9.180;2024-01-06T14:10:16;1.30;;;0.93;;
305;SDS011;137;48.578;9.180;2024-01-06T14:12:42;1.00;;;0.70;;
305;SDS011;137;48.578;9.180;2024-01-06T14:15:09;1.17;;;0.90;;
305;SDS011;137;48.578;9.180;2024-01-06T14:17:36;1.90;;;1.53;;
305;SDS011;137;48.578;9.180;2024-01-06T14:20:07;1.50;;;1.20;;
305;SDS011;137;48.578;9.180;2024-01-06T14:22:37;1.40;;;1.03;;
305;SDS011;137;48.578;9.180;2024-01-06T14:25:04;1.40;;;1.03;;
305;SDS011;137;48.578;9.180;2024-01-06T14:27:32;1.47;;;0.83;;
305;SDS011;137;48.578;9.180;2024-01-06T14:29:59;2.27;;;1.10;;
305;SDS011;137;48.578;9.180;2024-01-06T14:32:26;3.20;;;1.40;;
305;SDS011;137;48.578;9.180;2024-01-06T14:34:53;1.20;;;1.00;;
305;SDS011;137;48.578;9.180;2024-01-06T14:37:22;5.73;;;1.97;;
305;SDS011;137;48.578;9.180;2024-01-06T14:39:49;1.53;;;0.90;;
305;SDS011;137;48.578;9.180;2024-01-06T14:42:15;1.20;;;1.10;;
305;SDS011;137;48.578;9.180;2024-01-06T14:44:44;1.50;;;1.30;;
305;SDS011;137;48.578;9.180;2024-01-06T14:47:10;1.73;;;1.43;;
305;SDS011;137;48.578;9.180;2024-01-06T14:49:37;1.63;;;1.20;;
305;SDS011;137;48.578;9.180;2024-01-06T14:52:04;1.40;;;1.30;;
305;SDS011;137;48.578;9.180;2024-01-06T14:54:33;2.30;;;1.97;;
305;SDS011;137;48.578;9.180;2024-01-06T14:57:01;2.17;;;2.00;;
305;SDS011;137;48.578;9.180;2024-01-06T14:59:28;2.40;;;2.10;;
305;SDS011;137;48.578;9.180;2024-01-06T15:01:55;1.67;;;1.50;;
305;SDS011;137;48.578;9.180;2024-01-06T15:04:22;1.50;;;1.30;;
305;SDS011;137;48.578;9.180;2024-01-06T15:06:49;1.63;;;1.33;;
305;SDS011;137;48.578;9.180;2024-01-06T15:09:16;1.67;;;1.50;;
305;SDS011;137;48.578;9.180;2024-01-06T15:11:44;1.53;;;1.37;;
305;SDS011;137;48.578;9.180;2024-01-06T15:14:12;1.90;;;1.30;;
305;SDS011;137;48.578;9.180;2024-01-06T15:16:39;1.60;;;1.40;;
305;SDS011;137;48.578;9.180;2024-01-06T15:19:06;1.77;;;1.60;;
305;SDS011;137;48.578;9.180;2024-01-06T15:21:33;1.33;;;1.23;;
305;SDS011;137;48.578;9.180;2024-01-06T15:24:01;1.40;;;1.27;;
305;SDS011;137;48.578;9.180;2024-01-06T15:26:28;2.07;;;1.50;;
305;SDS011;137;48.578;9.180;2024-01-06T15:28:57;1.57;;;1.43;;
305;SDS011;137;48.578;9.180;2024-01-06T15:31:25;1.73;;;1.50;;
305;SDS011;137;48.578;9.180;2024-01-06T15:33:53;2.33;;;2.13;;
305;SDS011;137;48.578;9.180;2024-01-06T15:36:20;3.03;;;2.80;;
305;SDS011;137;48.578;9.180;2024-01-06T15:38:47;2.47;;;2.27;;
305;SDS011;137;48.578;9.180;2024-01-06T15:41:15;3.00;;;2.20;;
305;SDS011;137;48.578;9.180;2024-01-06T15:43:41;2.73;;;2.27;;
305;SDS011;137;48.578;9.180;2024-01-06T15:46:10;3.67;;;2.80;;
305;SDS011;137;48.578;9.180;2024-01-06T15:48:37;3.00;;;2.73;;
305;SDS011;137;48.578;9.180;2024-01-06T15:51:04;2.50;;;2.00;;
305;SDS011;137;48.578;9.180;2024-01-06T15:53:31;2.50;;;2.30;;
305;SDS011;137;48.578;9.180;2024-01-06T15:55:58;4.50;;;3.20;;